Time;durP1;ratioP1;P1;durP2;ratioP2;P2;SDS_P1;SDS_P2;PMS_P1;PMS_P2;Temp;Humidity;BMP_temperature;BMP_pressure;BME280_temperature;BME280_humidity;BME280_pressure;Samples;Min_cycle;Max_cycle;Signal;HPM_P1;HPM_P2
2023/06/27 00:01:16;;;;;;;6.93;2.95;;;14.10;99.90;;;;;;5072905;28;20044;-65
2023/06/27 00:03:41;;;;;;;4.93;3.00;;;14.10;99.90;;;;;;5038576;28;20556;-65
2023/06/27 00:06:07;;;;;;;8.18;3.05;;;14.10;99.90;;;;;;5034955;28;20048;-66
2023/06/27 00:08:33;;;;;;;6.60;3.35;;;14.10;99.90;;;;;;5048397;28;20045;-65
2023/06/27 00:10:59;;;;;;;5.50;2.78;;;14.00;99.90;;;;;;5072587;28;20796;-65
2023/06/27 00:13:28;;;;;;;5.50;2.90;;;14.00;99.90;;;;;;5072853;28;20041;-66
2023/06/27 00:15:54;;;;;;;8.13;3.10;;;14.00;99.90;;;;;;5054921;28;20042;-66
2023/06/27 00:18:22;;;;;;;8.40;3.20;;;14.00;99.90;;;;;;5054834;28;20550;-66
2023/06/27 00:20:49;;;;;;;7.75;3.28;;;14.00;99.90;;;;;;5054901;28;20406;-66
2023/06/27 00:23:24;;;;;;;5.68;3.22;;;13.90;99.90;;;;;;5054774;28;20136;-65
2023/06/27 00:25:50;;;;;;;5.68;3.55;;;13.90;99.90;;;;;;5054728;28;20083;-65
2023/06/27 00:28:16;;;;;;;8.88;3.65;;;13.90;99.90;;;;;;5054729;28;20397;-66
2023/06/27 00:30:42;;;;;;;5.03;3.40;;;13.90;99.90;;;;;;5072289;28;20055;-66
2023/06/27 00:33:11;;;;;;;9.25;4.05;;;13.80;99.90;;;;;;5072423;28;20079;-66
2023/06/27 00:35:40;;;;;;;9.27;3.53;;;13.80;99.90;;;;;;5072494;28;20036;-66
2023/06/27 00:38:06;;;;;;;7.15;3.03;;;13.80;99.90;;;;;;5054417;28;20478;-66
2023/06/27 00:40:31;;;;;;;8.10;3.97;;;13.80;99.90;;;;;;5034683;28;20056;-66
2023/06/27 00:42:57;;;;;;;8.10;3.55;;;13.70;99.90;;;;;;5034406;28;20458;-66
2023/06/27 00:45:23;;;;;;;7.82;3.20;;;13.70;99.90;;;;;;5046274;28;20044;-66
2023/06/27 00:48:00;;;;;;;6.93;3.58;;;13.70;99.90;;;;;;5053207;28;20494;-66
2023/06/27 00:50:27;;;;;;;7.25;4.10;;;13.60;99.90;;;;;;5072043;28;20052;-66
2023/06/27 00:52:54;;;;;;;6.60;3.50;;;13.60;99.90;;;;;;5071817;28;20086;-66
2023/06/27 00:55:21;;;;;;;6.70;3.35;;;13.60;99.90;;;;;;5054050;28;20044;-66
2023/06/27 00:57:48;;;;;;;9.27;3.78;;;13.60;99.90;;;;;;5053983;28;20040;-65
2023/06/27 01:00:17;;;;;;;5.78;3.90;;;13.50;99.90;;;;;;5054053;28;20044;-66
2023/06/27 01:02:47;;;;;;;7.82;3.72;;;13.50;99.90;;;;;;5054074;28;20082;-65
2023/06/27 01:05:15;;;;;;;9.02;3.85;;;13.50;99.90;;;;;;5034134;28;20475;-66
2023/06/27 01:08:01;;;;;;;5.10;3.70;;;13.50;99.90;;;;;;5069365;28;20401;-66
2023/06/27 01:10:34;;;;;;;7.15;3.88;;;13.50;99.90;;;;;;5071628;28;20144;-66
2023/06/27 01:13:22;;;;;;;9.93;4.00;;;13.50;99.90;;;;;;5071701;28;20037;-65
2023/06/27 01:15:48;;;;;;;4.03;3.20;;;13.50;99.90;;;;;;5054011;28;20082;-65
2023/06/27 01:18:15;;;;;;;6.45;3.60;;;13.40;99.90;;;;;;5036974;28;20090;-65
2023/06/27 01:20:44;;;;;;;8.63;4.18;;;13.40;99.90;;;;;;5036942;28;20045;-66
2023/06/27 01:23:29;;;;;;;6.35;3.60;;;13.40;99.90;;;;;;5071577;28;20052;-65
2023/06/27 01:26:05;;;;;;;5.05;3.63;;;13.30;99.90;;;;;;5053653;28;20044;-65
2023/06/27 01:28:32;;;;;;;4.88;3.53;;;13.30;99.90;;;;;;5071186;28;20041;-65
2023/06/27 01:31:01;;;;;;;8.90;3.90;;;13.40;99.90;;;;;;5017126;28;20121;-66
2023/06/27 01:34:09;;;;;;;5.70;3.55;;;13.30;99.90;;;;;;5050186;28;20063;-65
2023/06/27 01:36:53;;;;;;;8.88;3.97;;;13.30;99.90;;;;;;5021984;28;20057;-65
2023/06/27 01:39:25;;;;;;;6.25;3.50;;;13.30;99.90;;;;;;5071322;28;20131;-65
2023/06/27 01:41:56;;;;;;;6.73;3.80;;;13.30;99.90;;;;;;5053522;28;20036;-65
2023/06/27 01:44:23;;;;;;;7.13;3.85;;;13.30;99.90;;;;;;5053273;28;20153;-70
2023/06/27 01:46:52;;;;;;;7.40;4.28;;;13.30;99.90;;;;;;5053199;28;20048;-70
2023/06/27 01:49:18;;;;;;;7.07;4.10;;;13.20;99.90;;;;;;5071102;28;20064;-70
2023/06/27 01:51:44;;;;;;;13.25;4.15;;;13.20;99.90;;;;;;5052997;28;20101;-71
2023/06/27 01:54:10;;;;;;;6.07;4.25;;;13.20;99.90;;;;;;5053167;28;20116;-71
2023/06/27 01:56:36;;;;;;;7.28;4.00;;;13.20;99.90;;;;;;5070876;28;20523;-71
2023/06/27 01:59:02;;;;;;;6.60;3.90;;;13.10;99.90;;;;;;5016051;28;20514;-72
2023/06/27 02:01:28;;;;;;;7.65;3.95;;;13.10;99.90;;;;;;5066542;28;20044;-70
2023/06/27 02:03:54;;;;;;;7.80;4.28;;;13.10;99.90;;;;;;5070039;28;20094;-71
2023/06/27 02:06:20;;;;;;;8.13;4.40;;;13.00;99.90;;;;;;5052694;28;20048;-71
2023/06/27 02:08:45;;;;;;;8.80;4.13;;;13.00;99.90;;;;;;5070533;28;20094;-71
2023/06/27 02:11:11;;;;;;;11.52;4.25;;;13.00;99.90;;;;;;5070437;28;20041;-70
2023/06/27 02:13:38;;;;;;;6.82;4.72;;;13.00;99.90;;;;;;5049926;28;20433;-70
2023/06/27 02:16:04;;;;;;;8.35;4.55;;;13.00;99.90;;;;;;5052664;28;20040;-70
2023/06/27 02:18:29;;;;;;;6.93;4.00;;;13.00;99.90;;;;;;5052478;28;20044;-70
2023/06/27 02:20:55;;;;;;;8.75;4.45;;;13.00;99.90;;;;;;5052446;28;20051;-70
2023/06/27 02:23:21;;;;;;;6.68;4.60;;;13.00;99.90;;;;;;5070316;28;20056;-70
2023/06/27 02:25:47;;;;;;;7.72;4.32;;;12.90;99.90;;;;;;5052425;28;20048;-70
2023/06/27 02:28:12;;;;;;;7.15;4.35;;;12.90;99.90;;;;;;5070044;28;20033;-70
2023/06/27 02:30:38;;;;;;;6.93;4.50;;;12.90;99.90;;;;;;5070078;28;20605;-70
2023/06/27 02:33:04;;;;;;;8.30;4.50;;;12.90;99.90;;;;;;5070221;28;20521;-71
2023/06/27 02:35:29;;;;;;;11.32;4.13;;;12.90;99.90;;;;;;5070413;28;20072;-71
2023/06/27 02:37:55;;;;;;;8.75;4.25;;;12.90;99.90;;;;;;5070305;28;20500;-70
2023/06/27 02:40:21;;;;;;;10.75;4.80;;;12.90;99.90;;;;;;5052254;28;20050;-71
2023/06/27 02:42:47;;;;;;;8.52;4.35;;;12.90;99.90;;;;;;5052278;28;20560;-70
2023/06/27 02:45:13;;;;;;;8.02;4.97;;;12.90;99.90;;;;;;5052172;28;20083;-71
2023/06/27 02:47:39;;;;;;;6.40;4.60;;;12.90;99.90;;;;;;5070392;28;20072;-70
2023/06/27 02:50:05;;;;;;;9.93;5.00;;;12.90;99.90;;;;;;5052111;28;20123;-71
2023/06/27 02:52:31;;;;;;;9.80;4.93;;;12.80;99.90;;;;;;5070239;28;20041;-70
2023/06/27 02:54:56;;;;;;;8.27;4.90;;;12.80;99.90;;;;;;5052073;28;20104;-70
2023/06/27 02:57:22;;;;;;;11.23;5.10;;;12.80;99.90;;;;;;5069799;28;20299;-71
2023/06/27 02:59:48;;;;;;;8.05;5.20;;;12.80;99.90;;;;;;5035172;28;20423;-70
2023/06/27 03:02:14;;;;;;;9.80;5.15;;;12.80;99.90;;;;;;5069929;28;20048;-70
2023/06/27 03:04:39;;;;;;;11.85;5.60;;;12.80;99.90;;;;;;5035433;28;20051;-70
2023/06/27 03:07:05;;;;;;;11.00;5.72;;;12.80;99.90;;;;;;5069957;28;20033;-71
2023/06/27 03:09:32;;;;;;;10.57;6.00;;;12.80;99.90;;;;;;5069649;28;20555;-71
2023/06/27 03:11:58;;;;;;;13.02;5.50;;;12.80;99.90;;;;;;5052097;28;20402;-70
2023/06/27 03:14:24;;;;;;;8.15;5.45;;;12.80;99.90;;;;;;5051523;28;20051;-70
2023/06/27 03:16:50;;;;;;;12.30;6.07;;;12.80;99.90;;;;;;5036620;28;20123;-70
2023/06/27 03:19:15;;;;;;;9.45;5.55;;;12.80;99.90;;;;;;5055875;28;20421;-70
2023/06/27 03:21:41;;;;;;;11.52;6.32;;;12.80;99.90;;;;;;5039029;28;20044;-70
2023/06/27 03:24:07;;;;;;;12.25;6.53;;;12.80;99.90;;;;;;5073563;28;20075;-70
2023/06/27 03:26:33;;;;;;;12.05;6.25;;;12.70;99.90;;;;;;5073630;28;20052;-70
2023/06/27 03:28:58;;;;;;;11.73;6.50;;;12.70;99.90;;;;;;5055030;28;20047;-70
2023/06/27 03:31:24;;;;;;;7.82;5.82;;;12.70;99.90;;;;;;5055592;28;20048;-70
2023/06/27 03:33:52;;;;;;;11.30;6.45;;;12.80;99.90;;;;;;5038671;28;20124;-70
2023/06/27 03:36:17;;;;;;;9.93;6.68;;;12.80;99.90;;;;;;5073225;28;20075;-70
2023/06/27 03:38:45;;;;;;;10.77;6.32;;;12.80;99.90;;;;;;5055426;28;20478;-71
2023/06/27 03:41:11;;;;;;;13.30;7.63;;;12.80;99.90;;;;;;5055270;28;20080;-70
2023/06/27 03:43:37;;;;;;;10.73;6.43;;;12.80;99.90;;;;;;5073095;28;20115;-70
2023/06/27 03:46:03;;;;;;;9.32;6.43;;;12.80;99.90;;;;;;5055247;28;20581;-70
2023/06/27 03:48:28;;;;;;;12.40;6.85;;;12.90;99.90;;;;;;5073096;28;20563;-70
2023/06/27 03:50:56;;;;;;;14.32;6.55;;;12.90;99.90;;;;;;5072873;28;20076;-70
2023/06/27 03:53:22;;;;;;;12.18;7.15;;;12.90;99.90;;;;;;5038988;28;20390;-70
2023/06/27 03:55:48;;;;;;;12.68;6.80;;;12.90;99.90;;;;;;5055256;28;20120;-70
2023/06/27 03:58:13;;;;;;;11.65;7.05;;;13.00;99.90;;;;;;5035309;28;20063;-70
2023/06/27 04:00:42;;;;;;;11.30;6.95;;;13.00;99.90;;;;;;5070409;28;20512;-70
2023/06/27 04:03:08;;;;;;;17.73;7.65;;;13.00;99.90;;;;;;5072934;28;20048;-70
2023/06/27 04:05:33;;;;;;;12.65;7.13;;;13.00;99.90;;;;;;5035091;28;20044;-70
2023/06/27 04:07:59;;;;;;;16.60;7.43;;;13.10;99.90;;;;;;5055106;28;20094;-70
2023/06/27 04:10:25;;;;;;;10.70;6.78;;;13.10;99.90;;;;;;5054880;28;20055;-70
2023/06/27 04:12:50;;;;;;;11.98;7.15;;;13.10;99.90;;;;;;5038182;28;20036;-70
2023/06/27 04:15:16;;;;;;;14.98;7.40;;;13.20;99.90;;;;;;5072933;28;20086;-70
2023/06/27 04:17:43;;;;;;;10.93;7.47;;;13.20;99.90;;;;;;5054811;28;20047;-70
2023/06/27 04:20:11;;;;;;;14.55;6.97;;;13.20;99.90;;;;;;5072575;28;20093;-70
2023/06/27 04:22:37;;;;;;;14.20;7.72;;;13.30;99.90;;;;;;5072774;28;20045;-70
2023/06/27 04:25:02;;;;;;;10.45;7.03;;;13.30;99.90;;;;;;5051196;28;20329;-70
2023/06/27 04:27:28;;;;;;;14.18;6.97;;;13.30;99.90;;;;;;5046679;28;20429;-70
2023/06/27 04:29:54;;;;;;;11.10;7.00;;;13.40;99.90;;;;;;5053942;28;20047;-70
2023/06/27 04:32:19;;;;;;;12.77;7.18;;;13.40;99.90;;;;;;5054582;28;20135;-70
2023/06/27 04:34:45;;;;;;;8.25;6.13;;;13.40;99.90;;;;;;5054413;28;20048;-70
2023/06/27 04:37:11;;;;;;;13.07;7.57;;;13.50;99.90;;;;;;5054524;28;20048;-70
2023/06/27 04:39:36;;;;;;;11.40;7.10;;;13.50;99.90;;;;;;5072243;28;20059;-70
2023/06/27 04:42:02;;;;;;;13.60;7.15;;;13.50;99.90;;;;;;5054446;28;20036;-70
2023/06/27 04:44:28;;;;;;;10.80;7.28;;;13.60;99.90;;;;;;5054336;28;20072;-70
2023/06/27 04:46:54;;;;;;;12.90;7.03;;;13.60;99.90;;;;;;5054151;28;20059;-70
2023/06/27 04:49:19;;;;;;;14.35;7.50;;;13.60;99.90;;;;;;5072144;28;20086;-70
2023/06/27 04:51:45;;;;;;;9.38;7.15;;;13.70;99.90;;;;;;5071929;28;20036;-70
2023/06/27 04:54:11;;;;;;;12.00;7.18;;;13.70;99.90;;;;;;5071100;28;20044;-71
2023/06/27 04:56:37;;;;;;;11.65;7.35;;;13.80;99.90;;;;;;5054195;28;20044;-70
2023/06/27 04:59:02;;;;;;;14.55;7.47;;;13.90;99.90;;;;;;5071702;28;20039;-70
2023/06/27 05:01:28;;;;;;;13.10;7.65;;;13.90;99.90;;;;;;5034287;28;20060;-70
2023/06/27 05:04:04;;;;;;;15.25;7.93;;;14.00;99.90;;;;;;5053286;28;20037;-70
2023/06/27 05:06:34;;;;;;;15.68;7.50;;;14.00;99.90;;;;;;5072006;28;20433;-70
2023/06/27 05:09:01;;;;;;;10.63;7.10;;;14.10;99.90;;;;;;5053993;28;20083;-70
2023/06/27 05:11:27;;;;;;;11.60;7.40;;;14.10;99.90;;;;;;5033856;28;20128;-70
2023/06/27 05:13:53;;;;;;;12.60;7.03;;;14.20;99.90;;;;;;5053274;28;20044;-70
2023/06/27 05:16:19;;;;;;;15.90;7.65;;;14.20;99.90;;;;;;5053865;28;20040;-70
2023/06/27 05:18:48;;;;;;;11.30;7.63;;;14.30;99.90;;;;;;5053986;28;20044;-70
2023/06/27 05:21:14;;;;;;;14.05;7.72;;;14.30;99.90;;;;;;5071696;28;20051;-69
2023/06/27 05:23:39;;;;;;;13.57;7.65;;;14.40;99.90;;;;;;5053624;28;20040;-69
2023/06/27 05:26:05;;;;;;;10.77;7.15;;;14.40;99.90;;;;;;5050340;28;20045;-69
2023/06/27 05:28:31;;;;;;;13.63;7.43;;;14.50;99.90;;;;;;5033636;28;20367;-70
2023/06/27 05:30:57;;;;;;;12.65;7.63;;;14.60;99.90;;;;;;5071167;28;20118;-70
2023/06/27 05:33:25;;;;;;;11.23;7.55;;;14.60;99.90;;;;;;5071633;28;20056;-70
2023/06/27 05:35:51;;;;;;;11.77;7.32;;;14.70;99.90;;;;;;5053410;28;20045;-70
2023/06/27 05:38:16;;;;;;;11.82;7.68;;;14.80;99.90;;;;;;5032889;28;20048;-70
2023/06/27 05:40:43;;;;;;;10.52;7.30;;;14.80;99.90;;;;;;5048870;28;20048;-70
2023/06/27 05:43:08;;;;;;;9.57;6.88;;;14.90;99.90;;;;;;5071353;28;20051;-70
2023/06/27 05:45:34;;;;;;;13.68;7.25;;;14.90;99.90;;;;;;5053517;28;20040;-70
2023/06/27 05:48:00;;;;;;;10.57;6.88;;;15.10;99.90;;;;;;5070994;28;20051;-70
2023/06/27 05:50:27;;;;;;;14.52;7.03;;;15.10;99.90;;;;;;5070950;28;20036;-70
2023/06/27 05:52:52;;;;;;;12.98;5.88;;;15.20;99.90;;;;;;5071287;28;20072;-70
2023/06/27 05:55:18;;;;;;;10.80;5.80;;;15.30;99.90;;;;;;5053154;28;20099;-70
2023/06/27 05:57:44;;;;;;;11.45;6.13;;;15.40;99.90;;;;;;5036114;28;20125;-70
2023/06/27 06:00:11;;;;;;;11.07;5.72;;;15.50;99.90;;;;;;5070926;28;20093;-70
2023/06/27 06:02:42;;;;;;;14.50;6.55;;;15.60;99.90;;;;;;5071023;28;20040;-70
2023/06/27 06:05:10;;;;;;;12.13;5.83;;;15.60;99.90;;;;;;5070985;28;20032;-71
2023/06/27 06:07:39;;;;;;;11.60;6.70;;;15.80;99.90;;;;;;5053025;28;20166;-70
2023/06/27 06:10:05;;;;;;;12.57;5.90;;;15.80;99.90;;;;;;5052659;28;20075;-70
2023/06/27 06:12:31;;;;;;;12.45;6.03;;;15.90;99.90;;;;;;5052824;28;20041;-70
2023/06/27 06:14:57;;;;;;;11.85;5.10;;;16.00;99.90;;;;;;5070610;28;20094;-71
2023/06/27 06:17:22;;;;;;;6.78;4.47;;;16.20;99.90;;;;;;5049440;28;20040;-70
2023/06/27 06:19:48;;;;;;;10.10;4.63;;;16.30;99.90;;;;;;5069252;28;20401;-70
2023/06/27 06:22:14;;;;;;;7.05;3.33;;;16.40;99.90;;;;;;5070435;28;20112;-70
2023/06/27 06:24:40;;;;;;;10.68;4.03;;;16.50;99.90;;;;;;5017166;28;20135;-71
2023/06/27 06:27:06;;;;;;;9.18;3.20;;;16.60;99.90;;;;;;5052337;28;20563;-70
2023/06/27 06:29:32;;;;;;;6.97;3.35;;;16.70;99.90;;;;;;5052594;28;20115;-71
2023/06/27 06:31:57;;;;;;;10.93;3.28;;;16.80;99.90;;;;;;5032353;28;20092;-71
2023/06/27 06:34:23;;;;;;;8.43;3.50;;;16.90;99.90;;;;;;5049282;28;20490;-71
2023/06/27 06:36:49;;;;;;;8.52;3.58;;;17.00;99.90;;;;;;5050300;28;20041;-71
2023/06/27 06:39:14;;;;;;;8.93;3.13;;;17.10;99.90;;;;;;5052194;28;20584;-72
2023/06/27 06:41:40;;;;;;;9.63;3.17;;;17.20;99.90;;;;;;5052275;28;20047;-72
2023/06/27 06:44:06;;;;;;;6.78;2.97;;;17.30;99.90;;;;;;5052362;28;20101;-71
2023/06/27 06:46:31;;;;;;;6.80;2.88;;;17.40;99.90;;;;;;5049169;28;20055;-70
2023/06/27 06:48:57;;;;;;;7.32;2.92;;;17.50;99.90;;;;;;5048944;28;20235;-70
2023/06/27 06:51:23;;;;;;;7.88;2.92;;;17.60;99.90;;;;;;5032031;28;20547;-71
2023/06/27 06:53:49;;;;;;;6.82;3.05;;;17.60;99.90;;;;;;5051128;28;20080;-70
2023/06/27 06:56:15;;;;;;;7.25;2.45;;;17.80;99.90;;;;;;5032459;28;20040;-71
2023/06/27 06:58:40;;;;;;;7.78;2.22;;;17.90;99.90;;;;;;5047514;28;20049;-70
2023/06/27 07:01:06;;;;;;;4.25;2.10;;;18.00;99.90;;;;;;5052445;28;20066;-71
2023/06/27 07:03:33;;;;;;;5.03;2.30;;;18.10;99.90;;;;;;5052013;28;20048;-71
2023/06/27 07:05:59;;;;;;;11.10;2.47;;;18.30;99.90;;;;;;5057527;28;20029;-69
2023/06/27 07:08:25;;;;;;;6.35;2.33;;;18.40;99.90;;;;;;5048822;28;20414;-71
2023/06/27 07:10:50;;;;;;;4.25;1.95;;;18.60;99.90;;;;;;5051417;28;20037;-71
2023/06/27 07:13:16;;;;;;;6.40;2.03;;;18.70;99.90;;;;;;5052256;28;20043;-71
2023/06/27 07:15:42;;;;;;;6.90;2.25;;;18.80;99.90;;;;;;5070090;28;20474;-71
2023/06/27 07:18:08;;;;;;;5.53;1.80;;;19.00;99.90;;;;;;5052243;28;20250;-70
2023/06/27 07:20:34;;;;;;;4.78;2.00;;;19.10;99.90;;;;;;5032339;28;20410;-70
2023/06/27 07:23:00;;;;;;;2.80;1.50;;;19.30;99.90;;;;;;5051858;28;20045;-71
2023/06/27 07:25:25;;;;;;;5.63;1.83;;;19.40;99.90;;;;;;5031957;28;20075;-71
2023/06/27 07:27:51;;;;;;;5.72;1.98;;;19.40;99.90;;;;;;5049865;28;20048;-71
2023/06/27 07:30:17;;;;;;;4.20;1.80;;;19.50;99.90;;;;;;5069783;28;20131;-70
2023/06/27 07:32:42;;;;;;;4.47;1.50;;;19.60;99.90;;;;;;5061570;28;20052;-71
2023/06/27 07:35:08;;;;;;;4.53;1.52;;;19.70;99.90;;;;;;5035030;28;20490;-70
2023/06/27 07:37:34;;;;;;;3.85;1.50;;;19.80;99.90;;;;;;5070076;28;20036;-71
2023/06/27 07:40:01;;;;;;;3.58;1.75;;;19.80;99.40;;;;;;5048374;28;20045;-71
2023/06/27 07:42:27;;;;;;;5.00;1.55;;;19.80;98.10;;;;;;5048726;28;20206;-71
2023/06/27 07:44:53;;;;;;;4.50;1.50;;;19.70;98.50;;;;;;5051124;28;20204;-71
2023/06/27 07:47:19;;;;;;;4.63;1.40;;;19.60;98.00;;;;;;5035143;28;20049;-71
2023/06/27 07:49:44;;;;;;;5.40;1.40;;;19.60;97.40;;;;;;5051862;28;20102;-70
2023/06/27 07:52:11;;;;;;;2.97;1.15;;;19.70;98.00;;;;;;5048591;28;20497;-71
2023/06/27 07:54:37;;;;;;;3.20;1.67;;;19.80;97.90;;;;;;5049035;28;20190;-71
2023/06/27 07:57:03;;;;;;;2.70;1.42;;;20.00;97.80;;;;;;5051554;28;20041;-71
2023/06/27 07:59:29;;;;;;;6.63;1.60;;;20.20;97.20;;;;;;5069569;28;20049;-71
2023/06/27 08:01:55;;;;;;;3.38;1.40;;;20.40;95.70;;;;;;5035253;28;20067;-71
2023/06/27 08:04:21;;;;;;;3.38;1.55;;;20.60;95.60;;;;;;5055420;28;20049;-71
2023/06/27 08:06:47;;;;;;;4.30;1.63;;;20.80;95.60;;;;;;5055594;28;20052;-71
2023/06/27 08:09:13;;;;;;;3.30;1.50;;;20.80;94.50;;;;;;5054973;28;20564;-71
2023/06/27 08:11:38;;;;;;;4.68;1.65;;;20.90;94.70;;;;;;5073071;28;20072;-71
2023/06/27 08:14:04;;;;;;;4.25;1.40;;;21.00;94.20;;;;;;5018701;28;20033;-71
2023/06/27 08:16:30;;;;;;;5.47;1.65;;;21.20;94.50;;;;;;5047922;28;20477;-71
2023/06/27 08:18:56;;;;;;;2.92;1.25;;;21.30;94.70;;;;;;5038195;28;20040;-71
2023/06/27 08:21:21;;;;;;;6.55;1.77;;;21.20;94.30;;;;;;5073124;28;20049;-70
2023/06/27 08:23:47;;;;;;;5.60;1.90;;;21.10;94.50;;;;;;5054996;28;20040;-71
2023/06/27 08:26:15;;;;;;;6.82;1.58;;;20.90;94.30;;;;;;5072857;28;20490;-71
2023/06/27 08:28:41;;;;;;;6.07;1.48;;;20.70;93.60;;;;;;5054736;28;20036;-71
2023/06/27 08:31:07;;;;;;;3.85;1.48;;;20.50;93.80;;;;;;5054414;28;20088;-70
2023/06/27 08:33:33;;;;;;;3.83;1.58;;;20.40;93.90;;;;;;5054643;28;20118;-71
2023/06/27 08:35:58;;;;;;;3.95;1.50;;;20.30;94.20;;;;;;5071200;28;20040;-71
2023/06/27 08:38:24;;;;;;;2.88;1.63;;;20.20;94.20;;;;;;5072792;28;20397;-71
2023/06/27 08:40:54;;;;;;;6.43;1.90;;;20.40;94.20;;;;;;5054805;28;20040;-70
2023/06/27 08:43:21;;;;;;;3.65;1.42;;;20.40;93.40;;;;;;5054553;28;20048;-71
2023/06/27 08:45:53;;;;;;;6.95;1.90;;;20.40;93.80;;;;;;5054348;28;20040;-71
2023/06/27 08:48:19;;;;;;;4.53;1.58;;;20.40;93.20;;;;;;5072502;28;20040;-70
2023/06/27 08:50:49;;;;;;;2.33;1.23;;;20.50;93.00;;;;;;5054251;28;20056;-71
2023/06/27 08:53:19;;;;;;;3.75;1.60;;;20.60;92.40;;;;;;5054689;28;20398;-71
2023/06/27 08:55:51;;;;;;;4.30;1.40;;;20.60;91.60;;;;;;5054320;28;20044;-71
2023/06/27 08:58:20;;;;;;;3.20;1.08;;;20.70;90.90;;;;;;5053924;28;20048;-71
2023/06/27 09:00:47;;;;;;;5.10;1.58;;;20.70;90.50;;;;;;5037676;28;20079;-71
2023/06/27 09:03:13;;;;;;;4.22;1.63;;;20.90;90.50;;;;;;5072401;28;20037;-71
2023/06/27 09:05:40;;;;;;;3.17;1.40;;;21.00;90.40;;;;;;5053941;28;20085;-71
2023/06/27 09:08:06;;;;;;;3.08;1.67;;;21.10;90.40;;;;;;5054361;28;20079;-71
2023/06/27 09:10:33;;;;;;;4.28;1.20;;;21.30;90.60;;;;;;5053877;28;20475;-70
2023/06/27 09:13:00;;;;;;;3.70;1.42;;;21.40;88.00;;;;;;5025813;28;20707;-71
2023/06/27 09:15:26;;;;;;;1.95;1.20;;;21.40;87.50;;;;;;5050446;28;20555;-71
2023/06/27 09:17:52;;;;;;;5.40;1.63;;;21.40;87.10;;;;;;5071090;28;20379;-71
2023/06/27 09:20:19;;;;;;;3.45;1.20;;;21.50;87.50;;;;;;5053946;28;20109;-71
2023/06/27 09:22:45;;;;;;;1.77;1.13;;;21.60;86.30;;;;;;5019187;28;20041;-71
2023/06/27 09:25:15;;;;;;;2.72;1.38;;;21.80;86.90;;;;;;5053744;28;20048;-71
2023/06/27 09:27:42;;;;;;;6.15;1.40;;;21.90;85.20;;;;;;5071237;28;20094;-71
2023/06/27 09:30:10;;;;;;;1.80;1.20;;;22.10;84.50;;;;;;5017413;28;20406;-71
2023/06/27 09:32:51;;;;;;;3.80;1.13;;;22.20;84.40;;;;;;5047503;28;20045;-71
2023/06/27 09:35:17;;;;;;;5.15;1.30;;;22.10;80.50;;;;;;5071407;28;20055;-72
2023/06/27 09:37:42;;;;;;;6.32;1.42;;;22.10;82.10;;;;;;5053318;28;20036;-71
2023/06/27 09:40:19;;;;;;;3.03;1.23;;;22.10;82.60;;;;;;5071329;28;20044;-71
2023/06/27 09:42:53;;;;;;;2.78;1.30;;;22.20;82.50;;;;;;5071253;28;20456;-71
2023/06/27 09:45:19;;;;;;;2.75;1.40;;;22.40;81.90;;;;;;5053098;28;20048;-72
2023/06/27 09:47:52;;;;;;;2.72;0.93;;;22.60;82.30;;;;;;5018800;28;20045;-71
2023/06/27 09:50:31;;;;;;;2.97;1.33;;;22.70;80.70;;;;;;5053212;28;20041;-71
2023/06/27 09:53:02;;;;;;;3.47;1.30;;;22.60;80.40;;;;;;5071145;28;20051;-71
2023/06/27 09:55:28;;;;;;;5.97;1.40;;;22.60;80.30;;;;;;5071066;28;20040;-72
2023/06/27 09:57:55;;;;;;;5.13;1.45;;;22.30;80.60;;;;;;5053099;28;20115;-72
2023/06/27 10:00:22;;;;;;;4.10;1.65;;;22.20;80.00;;;;;;5036562;28;20182;-71
2023/06/27 10:02:49;;;;;;;2.55;1.10;;;22.10;80.40;;;;;;5071396;28;20087;-71
2023/06/27 10:05:21;;;;;;;3.70;1.40;;;22.20;81.30;;;;;;5053034;28;20101;-71
2023/06/27 10:07:49;;;;;;;5.97;1.60;;;22.60;82.40;;;;;;5070979;28;20045;-71
2023/06/27 10:10:15;;;;;;;4.53;1.42;;;22.90;82.60;;;;;;5070671;28;20471;-71
2023/06/27 10:12:42;;;;;;;2.70;1.10;;;23.00;81.60;;;;;;5052695;28;20120;-71
2023/06/27 10:15:09;;;;;;;5.07;1.55;;;23.00;81.80;;;;;;5036461;28;20127;-71
2023/06/27 10:17:35;;;;;;;5.78;1.50;;;23.10;80.80;;;;;;5036332;28;20090;-71
2023/06/27 10:20:03;;;;;;;6.55;1.60;;;22.90;80.50;;;;;;5032964;28;20049;-71
2023/06/27 10:22:34;;;;;;;18.58;3.53;;;22.90;80.50;;;;;;5032654;28;20095;-71
2023/06/27 10:25:03;;;;;;;4.25;1.50;;;23.00;81.30;;;;;;5040997;28;20316;-72
2023/06/27 10:27:35;;;;;;;3.83;1.23;;;23.10;80.70;;;;;;5032536;28;20045;-71
2023/06/27 10:30:19;;;;;;;2.75;1.15;;;23.20;80.80;;;;;;5049177;28;20045;-71
2023/06/27 10:32:45;;;;;;;5.03;1.35;;;23.10;79.70;;;;;;5050678;28;20461;-71
2023/06/27 10:35:26;;;;;;;3.35;1.35;;;23.10;80.50;;;;;;5032505;28;20057;-71
2023/06/27 10:38:07;;;;;;;4.87;1.40;;;23.40;81.80;;;;;;5051004;28;20052;-71
2023/06/27 10:41:09;;;;;;;4.25;1.40;;;23.30;80.70;;;;;;5052781;28;20283;-71
2023/06/27 10:43:51;;;;;;;3.90;1.15;;;23.20;80.00;;;;;;5069138;28;20044;-71
2023/06/27 10:46:23;;;;;;;2.70;1.30;;;23.30;81.40;;;;;;5052622;28;20043;-72
2023/06/27 10:48:57;;;;;;;6.63;1.38;;;23.40;80.60;;;;;;5070297;28;20097;-71
2023/06/27 10:51:32;;;;;;;4.45;1.60;;;23.40;80.90;;;;;;5052228;28;20053;-71
2023/06/27 10:54:14;;;;;;;4.82;1.70;;;23.30;79.90;;;;;;5052727;28;20047;-72
2023/06/27 10:56:44;;;;;;;3.08;1.30;;;23.30;78.50;;;;;;5052084;28;20072;-71
2023/06/27 10:59:18;;;;;;;2.35;1.20;;;23.50;79.90;;;;;;5032248;28;20041;-72
2023/06/27 11:02:01;;;;;;;2.50;1.23;;;23.40;76.40;;;;;;5068091;28;20084;-72
2023/06/27 11:04:39;;;;;;;3.30;1.17;;;23.60;77.80;;;;;;5070108;28;20560;-71
2023/06/27 11:07:07;;;;;;;5.45;1.77;;;23.70;78.70;;;;;;5052410;28;20041;-70
2023/06/27 11:09:35;;;;;;;3.65;1.13;;;23.80;79.50;;;;;;5052110;28;20040;-71
2023/06/27 11:12:14;;;;;;;2.75;1.25;;;24.10;79.90;;;;;;5069867;28;20608;-70
2023/06/27 11:14:44;;;;;;;3.42;1.40;;;24.10;78.30;;;;;;5052362;28;20048;-71
2023/06/27 11:17:13;;;;;;;7.43;1.67;;;24.00;77.50;;;;;;5070100;28;20041;-70
2023/06/27 11:19:40;;;;;;;3.10;1.17;;;24.00;78.30;;;;;;5070048;28;20036;-71
2023/06/27 11:22:06;;;;;;;2.80;1.20;;;24.10;78.80;;;;;;5051750;28;20525;-71
2023/06/27 11:24:32;;;;;;;2.38;1.20;;;24.10;77.20;;;;;;5070018;28;20045;-71
2023/06/27 11:27:00;;;;;;;3.08;1.67;;;24.00;77.10;;;;;;5069899;28;20086;-71
2023/06/27 11:29:27;;;;;;;3.80;1.50;;;23.70;75.60;;;;;;5048710;28;20048;-71
2023/06/27 11:31:54;;;;;;;2.97;1.23;;;23.90;78.30;;;;;;5050959;28;20049;-71
2023/06/27 11:34:21;;;;;;;4.95;1.27;;;23.90;77.40;;;;;;5052007;28;20110;-70
2023/06/27 11:36:47;;;;;;;5.38;1.88;;;24.10;77.50;;;;;;5035910;28;20044;-71
2023/06/27 11:39:14;;;;;;;6.55;1.35;;;24.20;77.10;;;;;;5074040;28;20032;-70
2023/06/27 11:41:40;;;;;;;3.97;1.30;;;24.10;76.10;;;;;;5055763;28;20047;-70
2023/06/27 11:44:11;;;;;;;4.20;1.35;;;24.00;76.30;;;;;;5073734;28;20047;-71
2023/06/27 11:46:54;;;;;;;5.85;1.95;;;23.90;76.20;;;;;;5055635;28;20048;-71
2023/06/27 11:49:25;;;;;;;8.02;1.73;;;24.00;74.50;;;;;;5055659;28;20041;-66
2023/06/27 11:51:51;;;;;;;3.88;1.27;;;23.90;76.50;;;;;;5073626;28;20448;-66
2023/06/27 11:54:19;;;;;;;7.47;2.30;;;23.90;76.80;;;;;;5073339;28;20040;-66
2023/06/27 11:56:45;;;;;;;2.30;1.25;;;23.70;76.80;;;;;;5073397;28;20046;-66
2023/06/27 11:59:13;;;;;;;4.00;1.35;;;23.60;76.30;;;;;;5054869;28;20040;-66
2023/06/27 12:01:43;;;;;;;2.35;1.20;;;23.50;76.00;;;;;;5055352;28;20094;-66
2023/06/27 12:04:16;;;;;;;5.78;1.30;;;23.30;75.70;;;;;;5035574;28;20048;-66
2023/06/27 12:06:46;;;;;;;4.45;1.20;;;23.20;76.60;;;;;;5071056;28;20041;-66
2023/06/27 12:09:25;;;;;;;4.15;1.33;;;23.20;76.80;;;;;;5055394;28;20040;-66
2023/06/27 12:12:03;;;;;;;5.15;1.20;;;23.00;77.20;;;;;;5054283;28;20116;-66
2023/06/27 12:14:29;;;;;;;3.72;1.55;;;23.00;77.30;;;;;;5055221;28;20053;-66
2023/06/27 12:16:55;;;;;;;3.72;1.35;;;22.90;77.30;;;;;;5054790;28;20049;-66
2023/06/27 12:19:22;;;;;;;4.88;1.40;;;22.80;77.60;;;;;;5038227;28;20037;-66
2023/06/27 12:21:49;;;;;;;2.47;1.02;;;22.60;77.80;;;;;;5073014;28;20037;-66
2023/06/27 12:24:15;;;;;;;5.85;1.20;;;22.50;78.30;;;;;;5054640;28;20036;-66
2023/06/27 12:26:41;;;;;;;2.88;1.17;;;22.50;79.40;;;;;;5054849;28;20177;-66
2023/06/27 12:29:08;;;;;;;3.38;1.23;;;22.50;79.80;;;;;;5034617;28;20153;-66
2023/06/27 12:31:37;;;;;;;6.20;1.92;;;22.60;80.20;;;;;;5048054;28;20053;-66
2023/06/27 12:34:04;;;;;;;16.48;1.65;;;22.50;80.00;;;;;;5054572;28;20090;-66
2023/06/27 12:36:33;;;;;;;4.65;1.20;;;22.30;79.40;;;;;;5054959;28;20032;-66
2023/06/27 12:39:00;;;;;;;5.28;1.75;;;22.20;80.00;;;;;;5054716;28;20044;-66
2023/06/27 12:41:27;;;;;;;5.05;1.23;;;22.10;80.60;;;;;;5072782;28;20040;-66
2023/06/27 12:43:53;;;;;;;5.90;1.70;;;22.00;81.20;;;;;;5037699;28;20056;-66
2023/06/27 12:46:19;;;;;;;5.15;1.95;;;21.90;81.60;;;;;;5054698;28;20044;-66